Time;durP1;ratioP1;P1;durP2;ratioP2;P2;SDS_P1;SDS_P2;PMS_P1;PMS_P2;Temp;Humidity;BMP_temperature;BMP_pressure;BME280_temperature;BME280_humidity;BME280_pressure;Samples;Min_cycle;Max_cycle;Signal;HPM_P1;HPM_P2
2022/03/01 00:02:00;;;;;;;0.30;0.30;;;0.80;74.60;;;;;;5036314;28;20442;-76
2022/03/01 00:04:27;;;;;;;0.30;0.30;;;0.80;74.90;;;;;;5035604;28;20458;-76
2022/03/01 00:06:53;;;;;;;0.50;0.50;;;0.80;74.50;;;;;;5037220;28;20450;-76
2022/03/01 00:09:20;;;;;;;0.43;0.43;;;0.70;75.00;;;;;;5035762;28;20513;-76
2022/03/01 00:11:47;;;;;;;0.30;0.30;;;0.70;74.60;;;;;;5038418;28;20435;-76
2022/03/01 00:14:13;;;;;;;0.30;0.30;;;0.70;75.50;;;;;;5036480;28;20830;-76
2022/03/01 00:16:42;;;;;;;0.30;0.30;;;0.70;75.60;;;;;;5035316;28;20961;-76
2022/03/01 00:19:08;;;;;;;0.77;0.77;;;0.70;75.70;;;;;;5036479;28;20479;-76
2022/03/01 00:21:35;;;;;;;0.40;0.40;;;0.60;75.80;;;;;;5037840;28;20454;-76
2022/03/01 00:24:02;;;;;;;0.40;0.40;;;0.50;75.50;;;;;;5036450;28;20437;-76
2022/03/01 00:26:29;;;;;;;0.70;0.70;;;0.50;76.10;;;;;;5038180;28;20451;-76
2022/03/01 00:28:55;;;;;;;0.43;0.43;;;0.50;77.40;;;;;;5035643;28;20450;-77
2022/03/01 00:31:22;;;;;;;0.30;0.20;;;0.50;77.00;;;;;;5036172;28;20446;-76
2022/03/01 00:33:50;;;;;;;0.97;0.87;;;0.40;77.90;;;;;;5038639;28;20442;-76
2022/03/01 00:36:17;;;;;;;0.30;0.30;;;0.40;78.70;;;;;;5038205;28;20458;-76
2022/03/01 00:38:44;;;;;;;0.40;0.40;;;0.40;80.80;;;;;;5039076;28;20494;-76
2022/03/01 00:41:10;;;;;;;1.57;1.47;;;0.40;79.40;;;;;;5040476;28;20802;-76
2022/03/01 00:43:37;;;;;;;0.73;0.57;;;0.30;79.50;;;;;;5037855;28;20450;-76
2022/03/01 00:46:04;;;;;;;0.73;0.70;;;0.30;80.60;;;;;;5037707;28;20454;-76
2022/03/01 00:48:31;;;;;;;0.30;0.30;;;0.30;80.90;;;;;;5037581;28;20466;-75
2022/03/01 00:50:59;;;;;;;0.40;0.40;;;0.20;80.60;;;;;;5036459;28;20454;-75
2022/03/01 00:53:26;;;;;;;0.80;0.43;;;0.20;80.20;;;;;;5035613;28;20478;-76
2022/03/01 00:55:53;;;;;;;0.30;0.30;;;0.10;79.80;;;;;;5036154;28;20446;-76
2022/03/01 00:58:19;;;;;;;0.30;0.30;;;0.10;80.20;;;;;;5035911;28;20490;-75
2022/03/01 01:00:46;;;;;;;0.40;0.40;;;0.10;80.00;;;;;;5035919;28;20454;-76
2022/03/01 01:03:13;;;;;;;0.30;0.30;;;0.00;80.60;;;;;;5036309;28;20446;-76
2022/03/01 01:05:40;;;;;;;6.80;1.30;;;0.00;80.40;;;;;;5035656;28;20462;-75
2022/03/01 01:08:08;;;;;;;1.17;0.80;;;0.10;79.40;;;;;;5034753;28;21000;-76
2022/03/01 01:10:34;;;;;;;0.30;0.30;;;0.00;78.40;;;;;;5034511;28;20479;-75
2022/03/01 01:13:01;;;;;;;0.97;0.97;;;-0.10;78.80;;;;;;5035225;28;20450;-75
2022/03/01 01:15:28;;;;;;;0.47;0.47;;;-0.10;78.80;;;;;;5034884;28;20942;-76
2022/03/01 01:17:55;;;;;;;0.50;0.47;;;-0.10;78.80;;;;;;5035014;28;20486;-76
2022/03/01 01:20:21;;;;;;;1.03;0.90;;;-0.10;79.50;;;;;;5035445;28;20508;-76
2022/03/01 01:22:48;;;;;;;0.30;0.30;;;-0.20;79.00;;;;;;5035146;28;20454;-75
2022/03/01 01:25:19;;;;;;;0.60;0.60;;;-0.20;79.10;;;;;;5035469;28;20454;-76
2022/03/01 01:27:48;;;;;;;0.30;0.30;;;-0.20;78.80;;;;;;5035776;28;20481;-76
2022/03/01 01:30:16;;;;;;;0.40;0.40;;;-0.20;79.60;;;;;;5036380;28;20447;-75
2022/03/01 01:32:43;;;;;;;0.70;0.70;;;-0.20;79.70;;;;;;5035582;28;20450;-76
2022/03/01 01:35:12;;;;;;;0.30;0.30;;;-0.30;79.70;;;;;;5035441;28;20496;-76
2022/03/01 01:37:40;;;;;;;0.67;0.67;;;-0.30;81.00;;;;;;5035915;28;20489;-76
2022/03/01 01:40:10;;;;;;;0.40;0.40;;;-0.40;80.50;;;;;;5035428;28;20450;-75
2022/03/01 01:42:38;;;;;;;0.30;0.20;;;-0.30;80.60;;;;;;5035811;28;20422;-76
2022/03/01 01:45:06;;;;;;;0.30;0.30;;;-0.30;79.80;;;;;;5035458;28;20481;-77
2022/03/01 01:47:33;;;;;;;0.60;0.60;;;-0.30;80.10;;;;;;5037565;28;20467;-76
2022/03/01 01:50:00;;;;;;;0.30;0.20;;;-0.30;79.80;;;;;;5036753;28;20451;-77
2022/03/01 01:52:27;;;;;;;0.33;0.33;;;-0.30;80.10;;;;;;5035696;28;20810;-76
2022/03/01 01:54:54;;;;;;;0.30;0.30;;;-0.40;80.30;;;;;;5039129;28;20450;-76
2022/03/01 01:57:23;;;;;;;1.17;1.17;;;-0.40;80.50;;;;;;5037339;28;20478;-76
2022/03/01 01:59:53;;;;;;;1.07;1.07;;;-0.40;81.20;;;;;;5036013;28;20428;-76
2022/03/01 02:02:22;;;;;;;0.30;0.30;;;-0.50;81.80;;;;;;5035033;28;20446;-77
2022/03/01 02:04:49;;;;;;;0.30;0.30;;;-0.50;81.90;;;;;;5036261;28;20439;-77
2022/03/01 02:07:16;;;;;;;0.60;0.60;;;-0.60;82.10;;;;;;5034147;28;20457;-77
2022/03/01 02:09:44;;;;;;;0.90;0.90;;;-0.60;82.60;;;;;;5033086;28;20540;-77
2022/03/01 02:12:10;;;;;;;0.30;0.20;;;-0.60;83.10;;;;;;5033474;28;20465;-77
2022/03/01 02:14:40;;;;;;;0.30;0.30;;;-0.70;83.00;;;;;;5034289;28;20505;-76
2022/03/01 02:17:09;;;;;;;0.30;0.30;;;-0.70;83.30;;;;;;5044204;28;20478;-76
2022/03/01 02:19:37;;;;;;;0.30;0.30;;;-0.70;83.30;;;;;;5045416;28;20473;-77
2022/03/01 02:22:06;;;;;;;0.30;0.30;;;-0.70;83.90;;;;;;5039213;28;20451;-76
2022/03/01 02:24:34;;;;;;;0.30;0.30;;;-0.80;84.20;;;;;;5039307;28;20446;-76
2022/03/01 02:27:03;;;;;;;1.50;1.50;;;-0.80;84.70;;;;;;5038586;28;20530;-76
2022/03/01 02:29:30;;;;;;;0.30;0.30;;;-0.70;84.10;;;;;;5038054;28;20466;-76
2022/03/01 02:31:59;;;;;;;0.30;0.30;;;-0.80;85.00;;;;;;5036792;28;20439;-76
2022/03/01 02:34:26;;;;;;;0.60;0.60;;;-0.80;85.30;;;;;;5036843;28;20451;-76
2022/03/01 02:36:53;;;;;;;0.30;0.30;;;-0.80;85.70;;;;;;5037094;28;20446;-76
2022/03/01 02:39:21;;;;;;;1.03;0.93;;;-0.80;86.20;;;;;;5037276;28;20493;-76
2022/03/01 02:41:48;;;;;;;0.37;0.37;;;-0.80;85.90;;;;;;5036996;28;20447;-76
2022/03/01 02:44:16;;;;;;;3.30;0.93;;;-0.80;86.70;;;;;;5036708;28;20446;-76
2022/03/01 02:46:43;;;;;;;0.30;0.30;;;-0.90;87.50;;;;;;5036393;28;20429;-76
2022/03/01 02:49:10;;;;;;;0.50;0.50;;;-0.90;87.90;;;;;;5035935;28;20982;-76
2022/03/01 02:51:38;;;;;;;0.30;0.30;;;-0.90;88.70;;;;;;5036719;28;21090;-76
2022/03/01 02:54:06;;;;;;;0.30;0.30;;;-0.90;88.30;;;;;;5040349;28;20429;-77
2022/03/01 02:56:35;;;;;;;0.30;0.30;;;-0.90;87.80;;;;;;5036648;28;20455;-77
2022/03/01 02:59:01;;;;;;;0.30;0.30;;;-0.90;88.60;;;;;;5035800;28;20478;-77
2022/03/01 03:01:29;;;;;;;1.73;1.63;;;-0.80;88.30;;;;;;5036069;28;20448;-77
2022/03/01 03:03:56;;;;;;;0.97;0.97;;;-0.90;88.90;;;;;;5036019;28;20453;-77
2022/03/01 03:06:23;;;;;;;0.30;0.30;;;-1.00;89.20;;;;;;5036011;28;20426;-77
2022/03/01 03:08:50;;;;;;;0.97;0.97;;;-1.00;89.30;;;;;;5035613;28;20445;-77
2022/03/01 03:11:17;;;;;;;3.60;0.87;;;-1.00;89.80;;;;;;5035631;28;20899;-77
2022/03/01 03:13:45;;;;;;;0.90;0.87;;;-1.00;90.20;;;;;;5035543;28;20457;-77
2022/03/01 03:16:12;;;;;;;1.63;1.60;;;-1.00;90.10;;;;;;5035799;28;20446;-77
2022/03/01 03:18:39;;;;;;;0.30;0.30;;;-1.00;90.10;;;;;;5035609;28;20489;-77
2022/03/01 03:21:07;;;;;;;0.30;0.30;;;-1.10;90.40;;;;;;5035677;28;20450;-77
2022/03/01 03:23:34;;;;;;;0.30;0.30;;;-1.10;90.40;;;;;;5035723;28;20458;-77
2022/03/01 03:26:01;;;;;;;0.30;0.30;;;-1.10;90.50;;;;;;5035614;28;20457;-77
2022/03/01 03:28:28;;;;;;;0.37;0.37;;;-1.20;91.00;;;;;;5034612;28;20957;-75
2022/03/01 03:30:56;;;;;;;0.47;0.47;;;-1.20;91.00;;;;;;5035287;28;20950;-74
2022/03/01 03:33:23;;;;;;;0.30;0.30;;;-1.20;90.90;;;;;;5035239;28;20917;-75
2022/03/01 03:35:50;;;;;;;0.40;0.37;;;-1.20;91.20;;;;;;5035600;28;20458;-75
2022/03/01 03:38:17;;;;;;;0.30;0.30;;;-1.20;91.20;;;;;;5035336;28;20461;-74
2022/03/01 03:40:44;;;;;;;0.97;0.90;;;-1.20;91.40;;;;;;5035418;28;20463;-74
2022/03/01 03:43:11;;;;;;;0.40;0.40;;;-1.30;91.50;;;;;;5035294;28;20458;-74
2022/03/01 03:45:38;;;;;;;0.40;0.40;;;-1.30;91.80;;;;;;5034974;28;20454;-74
2022/03/01 03:48:06;;;;;;;0.40;0.40;;;-1.30;91.90;;;;;;5035727;28;20449;-74
2022/03/01 03:50:33;;;;;;;0.87;0.87;;;-1.40;92.20;;;;;;5036487;28;20912;-77
2022/03/01 03:53:00;;;;;;;0.30;0.30;;;-1.40;92.50;;;;;;5034837;28;20929;-77
2022/03/01 03:55:27;;;;;;;1.43;1.43;;;-1.40;92.60;;;;;;5035144;28;20451;-77
2022/03/01 03:57:53;;;;;;;1.03;0.73;;;-1.30;92.60;;;;;;5035057;28;20467;-76
2022/03/01 04:00:20;;;;;;;0.30;0.30;;;-1.30;92.90;;;;;;5035989;28;20447;-77
2022/03/01 04:02:50;;;;;;;0.30;0.30;;;-1.40;92.70;;;;;;5035144;28;20447;-77
2022/03/01 04:05:19;;;;;;;0.70;0.70;;;-1.40;93.00;;;;;;5034789;28;20906;-77
2022/03/01 04:07:48;;;;;;;1.23;1.23;;;-1.40;92.80;;;;;;5034690;28;20944;-77
2022/03/01 04:10:15;;;;;;;0.30;0.30;;;-1.50;93.40;;;;;;5034509;28;20475;-77
2022/03/01 04:12:42;;;;;;;0.30;0.30;;;-1.50;93.60;;;;;;5034874;28;20549;-77
2022/03/01 04:15:10;;;;;;;0.30;0.30;;;-1.50;93.80;;;;;;5035050;28;20434;-77
2022/03/01 04:17:38;;;;;;;0.40;0.40;;;-1.50;94.10;;;;;;5034619;28;20982;-77
2022/03/01 04:20:05;;;;;;;0.30;0.30;;;-1.50;94.30;;;;;;5035182;28;20504;-77
2022/03/01 04:22:34;;;;;;;0.30;0.30;;;-1.60;94.60;;;;;;5036490;28;20458;-77
2022/03/01 04:25:00;;;;;;;2.40;1.30;;;-1.50;94.80;;;;;;5035999;28;20793;-77
2022/03/01 04:27:27;;;;;;;0.30;0.30;;;-1.50;94.90;;;;;;5036498;28;20454;-77
2022/03/01 04:29:54;;;;;;;0.40;0.40;;;-1.60;95.00;;;;;;5036087;28;20938;-77
2022/03/01 04:32:20;;;;;;;0.50;0.50;;;-1.60;95.60;;;;;;5036284;28;20433;-77
2022/03/01 04:34:47;;;;;;;0.30;0.30;;;-1.70;95.70;;;;;;5036305;28;20454;-77
2022/03/01 04:37:14;;;;;;;0.40;0.40;;;-1.70;96.10;;;;;;5035264;28;20972;-76
2022/03/01 04:39:42;;;;;;;0.30;0.30;;;-1.70;96.00;;;;;;5034428;28;20457;-76
2022/03/01 04:42:09;;;;;;;0.30;0.30;;;-1.70;96.70;;;;;;5035559;28;20425;-76
2022/03/01 04:44:36;;;;;;;0.30;0.30;;;-1.70;97.00;;;;;;5034446;28;20425;-76
2022/03/01 04:47:04;;;;;;;0.93;0.93;;;-1.70;97.40;;;;;;5034455;28;20816;-76
2022/03/01 04:49:31;;;;;;;0.50;0.50;;;-1.70;97.90;;;;;;5034304;28;20467;-76
2022/03/01 04:51:58;;;;;;;0.30;0.20;;;-1.70;97.80;;;;;;5033974;28;20932;-76
2022/03/01 04:54:24;;;;;;;0.30;0.30;;;-1.80;98.40;;;;;;5033988;28;20431;-76
2022/03/01 04:56:53;;;;;;;0.30;0.30;;;-1.70;98.30;;;;;;5033748;28;20939;-76
2022/03/01 04:59:19;;;;;;;0.30;0.30;;;-1.80;98.80;;;;;;5033906;28;20468;-76
2022/03/01 05:01:46;;;;;;;0.30;0.30;;;-1.80;98.90;;;;;;5035259;28;20778;-76
2022/03/01 05:04:13;;;;;;;0.97;0.97;;;-1.90;99.20;;;;;;5039497;28;20803;-76
2022/03/01 05:06:39;;;;;;;0.30;0.30;;;-1.90;99.60;;;;;;5036567;28;20429;-76
2022/03/01 05:09:06;;;;;;;0.50;0.50;;;-2.00;99.90;;;;;;5035528;28;20457;-76
2022/03/01 05:11:33;;;;;;;0.30;0.30;;;-1.90;99.90;;;;;;5035438;28;20881;-76
2022/03/01 05:14:01;;;;;;;0.40;0.40;;;-2.00;99.90;;;;;;5035314;28;20467;-76
2022/03/01 05:16:28;;;;;;;0.30;0.30;;;-1.90;99.90;;;;;;5034427;28;20794;-77
2022/03/01 05:18:55;;;;;;;0.37;0.37;;;-1.90;99.90;;;;;;5033602;28;20482;-76
2022/03/01 05:21:22;;;;;;;0.50;0.50;;;-1.90;99.90;;;;;;5033884;28;20421;-76
2022/03/01 05:23:49;;;;;;;0.30;0.30;;;-1.80;99.90;;;;;;5034015;28;20455;-76
2022/03/01 05:26:15;;;;;;;0.30;0.30;;;-1.80;99.90;;;;;;5035311;28;20454;-76
2022/03/01 05:28:42;;;;;;;0.30;0.30;;;-1.90;99.90;;;;;;5035535;28;21004;-77
2022/03/01 05:31:10;;;;;;;0.30;0.30;;;-1.90;99.90;;;;;;5035950;28;20452;-76
2022/03/01 05:33:37;;;;;;;0.30;0.30;;;-1.90;99.90;;;;;;5035142;28;20450;-76
2022/03/01 05:36:05;;;;;;;0.30;0.30;;;-1.80;99.90;;;;;;5034859;28;20429;-76
2022/03/01 05:38:31;;;;;;;0.30;0.30;;;-1.80;99.90;;;;;;5033640;28;20457;-77
2022/03/01 05:40:58;;;;;;;0.40;0.40;;;-1.80;99.90;;;;;;5034235;28;20481;-77
2022/03/01 05:43:25;;;;;;;0.30;0.30;;;-1.80;99.90;;;;;;5033934;28;20458;-76
2022/03/01 05:45:52;;;;;;;0.30;0.30;;;-1.70;99.90;;;;;;5033662;28;20454;-77
2022/03/01 05:48:20;;;;;;;0.37;0.37;;;-1.80;99.90;;;;;;5033748;28;20487;-76
2022/03/01 05:50:46;;;;;;;0.40;0.40;;;-1.80;99.90;;;;;;5035002;28;20954;-76
2022/03/01 05:53:13;;;;;;;0.40;0.40;;;-1.80;99.90;;;;;;5037589;28;20439;-77
2022/03/01 05:55:40;;;;;;;0.30;0.30;;;-1.80;99.90;;;;;;5038382;28;20461;-77
2022/03/01 05:58:07;;;;;;;0.30;0.30;;;-1.80;99.90;;;;;;5037576;28;20467;-76
2022/03/01 06:00:34;;;;;;;0.30;0.30;;;-1.90;99.90;;;;;;5037439;28;20494;-76
2022/03/01 06:03:01;;;;;;;0.50;0.50;;;-1.80;99.90;;;;;;5037183;28;20938;-77
2022/03/01 06:05:30;;;;;;;0.30;0.20;;;-1.80;99.90;;;;;;5037317;28;20461;-77
2022/03/01 06:07:57;;;;;;;0.30;0.30;;;-1.80;99.90;;;;;;5037170;28;20437;-76
2022/03/01 06:10:24;;;;;;;0.30;0.30;;;-1.80;99.90;;;;;;5037190;28;20889;-76
2022/03/01 06:12:51;;;;;;;0.80;0.47;;;-1.80;99.90;;;;;;5037524;28;20421;-77
2022/03/01 06:15:18;;;;;;;0.50;0.50;;;-1.90;99.90;;;;;;5037718;28;20447;-77
2022/03/01 06:17:45;;;;;;;0.30;0.30;;;-2.00;99.90;;;;;;5036960;28;20467;-76
2022/03/01 06:20:12;;;;;;;0.40;0.40;;;-2.00;99.90;;;;;;5037172;28;20478;-76
2022/03/01 06:22:41;;;;;;;0.30;0.30;;;-2.00;99.90;;;;;;5037370;28;20450;-76
2022/03/01 06:25:10;;;;;;;0.30;0.30;;;-2.10;99.90;;;;;;5037179;28;20442;-76
2022/03/01 06:27:38;;;;;;;0.40;0.37;;;-2.10;99.90;;;;;;5037268;28;20481;-76
2022/03/01 06:30:07;;;;;;;0.60;0.60;;;-2.10;99.90;;;;;;5037181;28;20500;-76
2022/03/01 06:32:34;;;;;;;2.00;1.90;;;-2.00;99.90;;;;;;5036771;28;20435;-77
2022/03/01 06:35:01;;;;;;;0.30;0.30;;;-1.90;99.90;;;;;;5036925;28;20458;-76
2022/03/01 06:37:28;;;;;;;0.30;0.30;;;-1.90;99.90;;;;;;5036952;28;20454;-77
2022/03/01 06:39:56;;;;;;;0.30;0.30;;;-1.90;99.90;;;;;;5036802;28;20456;-76
2022/03/01 06:42:23;;;;;;;0.30;0.30;;;-1.80;99.90;;;;;;5037330;28;20451;-76
2022/03/01 06:44:50;;;;;;;0.30;0.30;;;-1.80;99.90;;;;;;5037177;28;20429;-76
2022/03/01 06:47:18;;;;;;;0.30;0.30;;;-1.70;99.90;;;;;;5036672;28;20801;-76
2022/03/01 06:49:45;;;;;;;0.30;0.30;;;-1.70;99.90;;;;;;5036775;28;20946;-75
2022/03/01 06:52:11;;;;;;;0.80;0.53;;;-1.70;99.90;;;;;;5036688;28;20945;-76
2022/03/01 06:54:39;;;;;;;1.07;1.07;;;-1.70;99.90;;;;;;5036697;28;20450;-76
2022/03/01 06:57:07;;;;;;;0.40;0.40;;;-1.70;99.90;;;;;;5036927;28;20980;-76
2022/03/01 06:59:34;;;;;;;0.30;0.30;;;-1.60;99.90;;;;;;5036477;28;20518;-76
2022/03/01 07:02:01;;;;;;;0.30;0.30;;;-1.60;99.90;;;;;;5035594;28;20806;-76
2022/03/01 07:04:27;;;;;;;0.30;0.30;;;-1.50;99.90;;;;;;5036488;28;20451;-76
2022/03/01 07:06:54;;;;;;;0.83;0.83;;;-1.50;99.90;;;;;;5036578;28;20461;-75
2022/03/01 07:09:21;;;;;;;0.40;0.40;;;-1.50;99.90;;;;;;5035555;28;20968;-76
2022/03/01 07:11:48;;;;;;;1.80;1.70;;;-1.50;99.90;;;;;;5039687;28;20459;-76
2022/03/01 07:14:16;;;;;;;1.03;0.97;;;-1.50;99.90;;;;;;5041141;28;20425;-76
2022/03/01 07:16:43;;;;;;;0.30;0.30;;;-1.50;99.90;;;;;;5041166;28;20436;-76
2022/03/01 07:19:10;;;;;;;0.50;0.50;;;-1.40;99.90;;;;;;5039282;28;20482;-76
2022/03/01 07:21:37;;;;;;;0.97;0.57;;;-1.30;99.90;;;;;;5039278;28;20450;-77
2022/03/01 07:24:04;;;;;;;0.87;0.87;;;-1.30;99.90;;;;;;5038323;28;20447;-76
2022/03/01 07:26:31;;;;;;;0.60;0.60;;;-1.20;99.90;;;;;;5038425;28;20450;-76
2022/03/01 07:28:58;;;;;;;0.30;0.30;;;-1.20;99.90;;;;;;5037970;28;20471;-76
2022/03/01 07:31:26;;;;;;;0.30;0.30;;;-1.10;99.90;;;;;;5037305;28;20538;-76
2022/03/01 07:33:53;;;;;;;0.30;0.30;;;-1.00;99.90;;;;;;5036464;28;20427;-76
2022/03/01 07:36:19;;;;;;;0.30;0.30;;;-0.90;99.90;;;;;;5036693;28;20439;-76
2022/03/01 07:38:46;;;;;;;0.40;0.40;;;-0.90;99.90;;;;;;5035973;28;20448;-76
2022/03/01 07:41:13;;;;;;;0.30;0.30;;;-0.80;99.90;;;;;;5035750;28;20439;-76
2022/03/01 07:43:40;;;;;;;0.30;0.30;;;-0.70;99.90;;;;;;5035980;28;20439;-76
2022/03/01 07:46:11;;;;;;;0.30;0.30;;;-0.60;99.90;;;;;;5035549;28;20968;-77
2022/03/01 07:48:40;;;;;;;0.60;0.60;;;-0.50;99.90;;;;;;5035398;28;20478;-76
2022/03/01 07:51:07;;;;;;;0.30;0.30;;;-0.40;99.90;;;;;;5036078;28;20481;-76
2022/03/01 07:53:34;;;;;;;1.23;0.60;;;-0.30;99.90;;;;;;5035535;28;20417;-76
2022/03/01 07:56:01;;;;;;;0.30;0.30;;;-0.20;99.90;;;;;;5035542;28;20439;-76
2022/03/01 07:58:28;;;;;;;0.30;0.30;;;-0.20;99.90;;;;;;5035623;28;20445;-76
2022/03/01 08:00:54;;;;;;;0.30;0.30;;;-0.10;99.90;;;;;;5035041;28;20474;-76
2022/03/01 08:03:21;;;;;;;0.40;0.40;;;0.00;99.90;;;;;;5035113;28;20458;-76
2022/03/01 08:05:50;;;;;;;0.40;0.40;;;0.00;99.90;;;;;;5035358;28;20443;-76
2022/03/01 08:08:16;;;;;;;0.30;0.20;;;0.00;99.90;;;;;;5034784;28;20471;-76
2022/03/01 08:10:43;;;;;;;0.30;0.30;;;0.00;99.90;;;;;;5034449;28;20478;-75
2022/03/01 08:13:11;;;;;;;0.37;0.37;;;0.20;99.90;;;;;;5034679;28;20462;-75
2022/03/01 08:15:38;;;;;;;0.30;0.30;;;0.20;99.90;;;;;;5034732;28;20509;-75
2022/03/01 08:18:05;;;;;;;0.50;0.50;;;0.30;99.90;;;;;;5034895;28;20632;-75
2022/03/01 08:20:32;;;;;;;0.60;0.57;;;0.40;99.50;;;;;;5039593;28;20488;-76
2022/03/01 08:23:02;;;;;;;1.10;0.50;;;0.40;99.60;;;;;;5038406;28;20965;-76
2022/03/01 08:25:28;;;;;;;0.30;0.30;;;0.40;99.00;;;;;;5038448;28;20867;-75
2022/03/01 08:27:56;;;;;;;0.60;0.50;;;0.50;99.20;;;;;;5037153;28;20839;-76
2022/03/01 08:30:24;;;;;;;0.90;0.83;;;0.60;99.10;;;;;;5037346;28;20435;-75
2022/03/01 08:32:52;;;;;;;0.93;0.93;;;0.70;98.70;;;;;;5037655;28;20453;-76
2022/03/01 08:35:19;;;;;;;0.30;0.30;;;0.80;98.80;;;;;;5037167;28;20538;-75
2022/03/01 08:37:46;;;;;;;0.50;0.50;;;1.00;98.10;;;;;;5035813;28;20482;-75
2022/03/01 08:40:15;;;;;;;0.70;0.70;;;1.00;97.80;;;;;;5035516;28;20534;-76
2022/03/01 08:42:42;;;;;;;0.90;0.83;;;1.10;96.50;;;;;;5035028;28;20533;-76
2022/03/01 08:45:10;;;;;;;0.70;0.70;;;1.20;96.70;;;;;;5034258;28;20454;-76
2022/03/01 08:47:37;;;;;;;0.43;0.43;;;1.30;96.30;;;;;;5034124;28;20516;-76
2022/03/01 08:50:05;;;;;;;0.40;0.30;;;1.50;95.90;;;;;;5034140;28;20541;-76
2022/03/01 08:52:32;;;;;;;0.30;0.30;;;1.70;96.00;;;;;;5034189;28;20454;-75
2022/03/01 08:54:59;;;;;;;0.30;0.30;;;1.80;94.80;;;;;;5034158;28;20858;-76
2022/03/01 08:57:27;;;;;;;0.30;0.30;;;1.90;95.10;;;;;;5033960;28;20941;-76
2022/03/01 08:59:53;;;;;;;0.43;0.43;;;2.10;95.50;;;;;;5033745;28;20997;-76
2022/03/01 09:02:20;;;;;;;0.30;0.30;;;2.40;93.80;;;;;;5034224;28;20451;-76
2022/03/01 09:04:47;;;;;;;0.30;0.30;;;2.70;93.40;;;;;;5033651;28;20500;-76
2022/03/01 09:07:16;;;;;;;0.60;0.60;;;3.10;92.60;;;;;;5033806;28;20493;-76
2022/03/01 09:09:43;;;;;;;0.50;0.40;;;3.60;91.60;;;;;;5033488;28;20478;-76
2022/03/01 09:12:10;;;;;;;0.63;0.60;;;4.30;89.70;;;;;;5033799;28;20443;-75
2022/03/01 09:14:38;;;;;;;1.20;1.13;;;5.20;86.70;;;;;;5033960;28;20412;-76
2022/03/01 09:17:05;;;;;;;0.30;0.20;;;6.40;79.20;;;;;;5033742;28;20455;-76
2022/03/01 09:19:32;;;;;;;0.30;0.30;;;7.50;73.30;;;;;;5033535;28;20462;-76
2022/03/01 09:21:58;;;;;;;0.30;0.30;;;8.40;66.30;;;;;;5033692;28;20431;-77
2022/03/01 09:24:25;;;;;;;0.53;0.53;;;9.10;60.70;;;;;;5033457;28;20498;-77
2022/03/01 09:26:52;;;;;;;0.40;0.40;;;9.40;58.20;;;;;;5033238;28;20454;-78
2022/03/01 09:29:19;;;;;;;0.73;0.63;;;10.00;54.20;;;;;;5033329;28;20463;-77
2022/03/01 09:31:47;;;;;;;0.37;0.37;;;11.30;51.40;;;;;;5033399;28;20447;-77
2022/03/01 09:34:13;;;;;;;0.50;0.50;;;11.70;49.10;;;;;;5033374;28;20439;-76
2022/03/01 09:36:40;;;;;;;0.40;0.40;;;12.50;47.00;;;;;;5033336;28;20451;-76
2022/03/01 09:39:07;;;;;;;0.80;0.40;;;13.60;45.60;;;;;;5033255;28;20470;-75
2022/03/01 09:41:37;;;;;;;0.73;0.70;;;13.50;43.80;;;;;;5032897;28;21015;-76
2022/03/01 09:44:05;;;;;;;1.13;1.07;;;13.70;42.90;;;;;;5033105;28;20891;-76
2022/03/01 09:46:32;;;;;;;1.13;1.03;;;14.40;41.30;;;;;;5033171;28;20482;-75
2022/03/01 09:49:00;;;;;;;0.60;0.60;;;14.60;41.50;;;;;;5033176;28;20470;-75
2022/03/01 09:51:27;;;;;;;7.20;0.93;;;14.50;40.20;;;;;;5033236;28;20431;-75
2022/03/01 09:53:55;;;;;;;1.87;0.80;;;14.30;40.10;;;;;;5033191;28;20439;-75
2022/03/01 09:56:22;;;;;;;0.50;0.50;;;14.00;40.10;;;;;;5033191;28;20420;-75
2022/03/01 09:58:51;;;;;;;0.70;0.70;;;14.20;38.70;;;;;;5033127;28;20477;-75
2022/03/01 10:01:18;;;;;;;0.77;0.77;;;14.30;39.60;;;;;;5033114;28;20475;-76
2022/03/01 10:03:48;;;;;;;4.10;1.17;;;14.60;39.00;;;;;;5032812;28;20431;-76
2022/03/01 10:06:18;;;;;;;2.00;1.80;;;14.50;38.70;;;;;;5033488;28;20450;-75
2022/03/01 10:08:45;;;;;;;1.30;0.63;;;14.40;38.00;;;;;;5032937;28;20471;-75
2022/03/01 10:11:12;;;;;;;3.23;0.60;;;14.20;40.00;;;;;;5014165;28;20459;-75
2022/03/01 10:13:40;;;;;;;2.60;0.93;;;13.60;39.20;;;;;;5012981;28;20993;-82
2022/03/01 10:16:09;;;;;;;5.27;1.10;;;13.40;41.20;;;;;;5013282;28;20432;-75
2022/03/01 10:18:37;;;;;;;1.00;1.00;;;13.70;40.60;;;;;;5013117;28;20467;-75
2022/03/01 10:21:05;;;;;;;0.50;0.50;;;13.80;38.80;;;;;;5013134;28;20482;-75
2022/03/01 10:23:34;;;;;;;1.00;0.53;;;13.90;37.60;;;;;;5012799;28;20934;-75
2022/03/01 10:26:12;;;;;;;2.20;0.50;;;13.90;38.10;;;;;;5013151;28;20443;-75
2022/03/01 10:28:39;;;;;;;2.83;0.70;;;14.20;36.80;;;;;;5013167;28;20467;-75
2022/03/01 10:31:11;;;;;;;2.73;0.70;;;14.50;36.70;;;;;;5013054;28;20470;-75
2022/03/01 10:33:39;;;;;;;2.30;1.00;;;15.30;36.10;;;;;;5013085;28;20447;-75
2022/03/01 10:36:06;;;;;;;0.93;0.60;;;16.40;35.50;;;;;;5013090;28;20447;-75
2022/03/01 10:38:38;;;;;;;1.33;0.70;;;17.50;35.70;;;;;;5015651;28;20557;-75
2022/03/01 10:41:05;;;;;;;2.37;1.60;;;18.50;33.90;;;;;;5016312;28;20526;-76
2022/03/01 10:43:32;;;;;;;2.30;0.90;;;19.90;32.30;;;;;;5016842;28;20796;-76
2022/03/01 10:46:02;;;;;;;0.90;0.77;;;20.60;31.90;;;;;;5016304;28;20930;-75
2022/03/01 10:48:31;;;;;;;2.87;1.43;;;21.50;30.00;;;;;;5016805;28;20497;-75
2022/03/01 10:50:59;;;;;;;1.63;1.27;;;21.80;28.80;;;;;;5016489;28;20449;-76
2022/03/01 10:53:30;;;;;;;2.20;1.30;;;22.00;28.70;;;;;;5016466;28;20446;-76
2022/03/01 10:56:02;;;;;;;4.07;1.90;;;22.20;28.60;;;;;;5016421;28;20450;-76
2022/03/01 10:58:29;;;;;;;2.10;1.42;;;22.10;28.20;;;;;;5015923;28;20222;-77
2022/03/01 11:00:56;;;;;;;1.50;0.90;;;22.00;27.70;;;;;;5016163;28;20219;-77
2022/03/01 11:03:23;;;;;;;2.35;1.45;;;22.20;28.30;;;;;;5015954;28;20694;-77
2022/03/01 11:05:52;;;;;;;1.73;0.90;;;22.30;27.80;;;;;;5016268;28;20207;-77
2022/03/01 11:08:21;;;;;;;6.25;1.73;;;22.20;27.40;;;;;;5016070;28;20311;-77
2022/03/01 11:10:51;;;;;;;1.75;1.30;;;21.00;27.70;;;;;;5032383;28;20232;-77
2022/03/01 11:13:21;;;;;;;3.33;1.27;;;19.80;28.10;;;;;;5035595;28;20199;-77
2022/03/01 11:16:20;;;;;;;1.93;1.10;;;18.10;27.90;;;;;;5036077;28;20578;-77
2022/03/01 11:18:53;;;;;;;1.70;1.60;;;16.70;29.70;;;;;;5035433;28;20465;-76
2022/03/01 11:21:21;;;;;;;2.20;1.00;;;15.10;30.30;;;;;;5035576;28;20469;-76
2022/03/01 11:23:49;;;;;;;1.43;1.33;;;14.10;31.70;;;;;;5035295;28;20968;-77
2022/03/01 11:26:17;;;;;;;0.93;0.87;;;13.10;32.40;;;;;;5035243;28;20450;-76
2022/03/01 11:28:54;;;;;;;0.63;0.60;;;12.30;32.30;;;;;;5035498;28;20467;-76
2022/03/01 11:31:23;;;;;;;1.13;1.03;;;11.50;34.40;;;;;;5035572;28;20434;-77
2022/03/01 11:33:58;;;;;;;0.60;0.60;;;10.70;35.70;;;;;;5035506;28;20451;-76
2022/03/01 11:36:29;;;;;;;0.70;0.70;;;10.20;35.50;;;;;;5035455;28;20446;-76
2022/03/01 11:38:56;;;;;;;3.13;1.00;;;9.70;37.50;;;;;;5035359;28;20466;-76
2022/03/01 11:41:23;;;;;;;2.60;0.63;;;9.60;38.10;;;;;;5035306;28;20490;-76
2022/03/01 11:43:57;;;;;;;0.40;0.40;;;9.50;39.20;;;;;;5035654;28;20439;-76
2022/03/01 11:46:24;;;;;;;0.50;0.50;;;9.40;37.90;;;;;;5035318;28;20530;-76
2022/03/01 11:48:54;;;;;;;0.43;0.43;;;9.40;38.60;;;;;;5034654;28;20557;-76
2022/03/01 11:51:32;;;;;;;0.40;0.30;;;9.30;39.40;;;;;;5035228;28;20482;-76
2022/03/01 11:54:02;;;;;;;0.60;0.40;;;9.10;39.30;;;;;;5035197;28;20531;-78
2022/03/01 11:56:29;;;;;;;2.87;0.87;;;9.00;39.60;;;;;;5035287;28;20465;-76
2022/03/01 11:59:05;;;;;;;0.63;0.63;;;8.90;40.00;;;;;;5034695;28;20823;-76
2022/03/01 12:01:33;;;;;;;0.40;0.33;;;8.90;39.30;;;;;;5034977;28;20474;-75
2022/03/01 12:04:02;;;;;;;1.27;0.40;;;8.90;38.90;;;;;;5034903;28;20450;-75
2022/03/01 12:06:31;;;;;;;1.63;0.50;;;8.80;37.30;;;;;;5034873;28;20450;-74
2022/03/01 12:08:59;;;;;;;0.40;0.37;;;8.70;37.90;;;;;;5034493;28;20473;-75
2022/03/01 12:11:34;;;;;;;2.20;0.50;;;8.60;38.90;;;;;;5034497;28;20937;-75
2022/03/01 12:14:10;;;;;;;0.97;0.70;;;8.70;37.80;;;;;;5034479;28;20826;-75
2022/03/01 12:16:39;;;;;;;1.57;0.97;;;8.60;38.30;;;;;;5035642;28;20793;-75
2022/03/01 12:19:11;;;;;;;0.33;0.27;;;8.70;36.90;;;;;;5034598;28;20471;-74
2022/03/01 12:21:39;;;;;;;0.50;0.50;;;8.60;36.90;;;;;;5034617;28;20466;-75
2022/03/01 12:24:08;;;;;;;0.50;0.50;;;8.50;37.50;;;;;;5034187;28;20446;-75
2022/03/01 12:26:43;;;;;;;0.40;0.40;;;8.30;38.10;;;;;;5034247;28;20545;-75
2022/03/01 12:29:11;;;;;;;1.43;0.80;;;8.30;36.70;;;;;;5034080;28;20462;-75
2022/03/01 12:31:38;;;;;;;0.30;0.30;;;8.20;37.30;;;;;;5034128;28;20446;-75
2022/03/01 12:34:07;;;;;;;0.40;0.40;;;8.20;36.70;;;;;;5034150;28;20431;-75
2022/03/01 12:36:36;;;;;;;0.30;0.23;;;8.00;37.40;;;;;;5034423;28;20431;-75
2022/03/01 12:39:05;;;;;;;0.60;0.60;;;8.00;36.50;;;;;;5034009;28;20989;-75
2022/03/01 12:41:33;;;;;;;1.20;1.20;;;7.90;37.60;;;;;;5034664;28;20467;-75
2022/03/01 12:44:02;;;;;;;0.43;0.33;;;7.70;37.60;;;;;;5034363;28;20917;-75
2022/03/01 12:46:31;;;;;;;1.03;0.90;;;7.50;38.50;;;;;;5034456;28;20457;-75
2022/03/01 12:48:59;;;;;;;0.83;0.43;;;7.40;38.60;;;;;;5034241;28;20507;-75
2022/03/01 12:51:28;;;;;;;0.60;0.60;;;7.20;38.80;;;;;;5034207;28;20431;-75
2022/03/01 12:53:56;;;;;;;1.03;1.03;;;7.20;38.90;;;;;;5034303;28;20435;-76